Ashland, Kansas
Current Conditions -  °F | °C
As of 11:52 AM on Thursday 27 Nov 2014 (Local Time) from KDDC Reporting Station
Clear Clear  
Wind Chill:   Ceiling: Unl
Heat Index:   Visibility: 10mi
Dew Point: -7°   Wind: 24mph
Humidity: 34%   Direction: 190°S
Pressure: 30.32"   Gusts: NA
Location:  37.19°N, 99.77°W
Report Text: KDDC 271752Z AUTO 19021KT 10SM CLR 08/M07 A3032 RMK AO2 PK WND 20028/1729 PRESFR SLP282 T00781072 10078 21067 58025
Loading
Personal Weather Stations






























Interactive Weather Map New forecast layout! Learn more

10-Day Weather Forecast

Advertisements
Track Severe Weather on mobile